createdAt,value
2018-10-03T00:01:31.656Z,20.60
2018-10-03T00:04:13.024Z,20.60
2018-10-03T00:06:53.584Z,20.60
2018-10-03T00:09:35.035Z,20.50
2018-10-03T00:12:16.412Z,20.50
2018-10-03T00:14:57.751Z,20.50
2018-10-03T00:17:39.140Z,20.50
2018-10-03T00:20:20.588Z,20.50
2018-10-03T00:23:01.988Z,20.40
2018-10-03T00:25:42.512Z,20.40
2018-10-03T00:28:23.884Z,20.30
2018-10-03T00:31:05.343Z,20.30
2018-10-03T00:33:46.715Z,20.30
2018-10-03T00:36:27.223Z,20.30
2018-10-03T00:39:07.664Z,20.30
2018-10-03T00:41:48.139Z,20.30
2018-10-03T00:44:29.467Z,20.20
2018-10-03T00:47:09.872Z,20.30
2018-10-03T00:49:51.212Z,20.30
2018-10-03T00:52:31.847Z,20.30
2018-10-03T00:55:13.196Z,20.30
2018-10-03T00:57:53.654Z,20.30
2018-10-03T01:00:34.128Z,20.30
2018-10-03T01:03:14.588Z,20.30
2018-10-03T01:05:55.089Z,20.20
2018-10-03T01:08:36.483Z,20.20
2018-10-03T01:11:17.867Z,20.20
2018-10-03T01:13:58.368Z,20.20
2018-10-03T01:16:38.907Z,20.20
2018-10-03T01:19:19.407Z,20.20
2018-10-03T01:22:00.785Z,20.10
2018-10-03T01:24:42.216Z,20.10
2018-10-03T01:27:23.610Z,20.10
2018-10-03T01:30:04.963Z,20.10
2018-10-03T01:32:46.431Z,20.10
2018-10-03T01:35:26.899Z,20.10
2018-10-03T01:38:07.519Z,20.10
2018-10-03T01:40:48.004Z,20.00
2018-10-03T01:43:28.551Z,20.00
2018-10-03T01:46:09.059Z,19.90
2018-10-03T01:48:50.451Z,19.90
2018-10-03T01:51:31.413Z,19.90
2018-10-03T01:54:13.144Z,19.90
2018-10-03T01:56:53.975Z,19.90
2018-10-03T01:59:34.501Z,20.00
2018-10-03T02:02:15.063Z,20.00
2018-10-03T02:04:55.576Z,20.00
2018-10-03T02:07:36.944Z,20.00
2018-10-03T02:10:17.432Z,20.00
2018-10-03T02:12:58.816Z,20.10
2018-10-03T02:15:39.267Z,20.10
2018-10-03T02:18:19.688Z,20.00
2018-10-03T02:21:00.348Z,20.10
2018-10-03T02:23:41.475Z,20.10
2018-10-03T02:26:22.039Z,20.10
2018-10-03T02:29:03.503Z,20.00
2018-10-03T02:31:43.996Z,20.10
2018-10-03T02:34:25.952Z,20.10
2018-10-03T02:37:06.907Z,20.10
2018-10-03T02:39:47.436Z,20.10
2018-10-03T02:42:28.827Z,20.10
2018-10-03T02:45:10.214Z,20.10
2018-10-03T02:47:51.992Z,20.20
2018-10-03T02:50:33.506Z,20.10
2018-10-03T02:53:14.907Z,20.10
2018-10-03T02:55:55.327Z,20.20
2018-10-03T02:58:36.993Z,20.20
2018-10-03T03:01:18.163Z,20.10
2018-10-03T03:03:58.648Z,20.10
2018-10-03T03:06:39.152Z,20.20
2018-10-03T03:09:21.072Z,20.30
2018-10-03T03:12:02.193Z,20.40
2018-10-03T03:14:42.729Z,20.50
2018-10-03T03:17:24.076Z,20.60
2018-10-03T03:20:05.489Z,20.60
2018-10-03T03:22:46.927Z,20.60
2018-10-03T03:25:28.284Z,20.60
2018-10-03T03:28:08.938Z,20.60
2018-10-03T03:30:50.623Z,20.60
2018-10-03T03:33:31.948Z,20.60
2018-10-03T03:36:12.967Z,20.50
2018-10-03T03:38:53.843Z,20.50
2018-10-03T03:41:34.351Z,20.50
2018-10-03T03:44:14.824Z,20.50
2018-10-03T03:46:56.193Z,20.50
2018-10-03T03:49:36.757Z,20.40
2018-10-03T03:52:17.321Z,20.30
2018-10-03T03:54:57.851Z,20.30
2018-10-03T03:57:38.303Z,20.30
2018-10-03T04:00:18.971Z,20.20
2018-10-03T04:03:00.498Z,20.10
2018-10-03T04:05:41.815Z,20.10
2018-10-03T04:08:22.280Z,20.10
2018-10-03T04:11:02.784Z,20.10
2018-10-03T04:13:44.171Z,20.10
2018-10-03T04:16:25.564Z,20.10
2018-10-03T04:19:06.915Z,20.00
2018-10-03T04:21:48.006Z,19.90
2018-10-03T04:24:28.848Z,19.90
2018-10-03T04:27:10.143Z,20.00
2018-10-03T04:29:51.536Z,20.00
2018-10-03T04:32:32.139Z,20.00
2018-10-03T04:35:13.567Z,19.90
2018-10-03T04:37:54.987Z,20.00
2018-10-03T04:40:36.405Z,20.00
2018-10-03T04:43:17.840Z,20.00
2018-10-03T04:45:58.563Z,20.00
2018-10-03T04:48:40.028Z,20.00
2018-10-03T04:51:20.609Z,19.90
2018-10-03T04:54:01.903Z,19.90
2018-10-03T04:56:43.303Z,20.00
2018-10-03T04:59:24.744Z,20.00
2018-10-03T05:02:06.252Z,20.00
2018-10-03T05:04:47.633Z,20.00
2018-10-03T05:07:28.252Z,19.90
2018-10-03T05:10:09.884Z,19.90
2018-10-03T05:12:51.156Z,19.90
2018-10-03T05:15:32.636Z,19.90
2018-10-03T05:18:14.056Z,19.90
2018-10-03T05:20:55.460Z,19.90
2018-10-03T05:23:35.903Z,19.90
2018-10-03T05:26:16.567Z,20.00
2018-10-03T05:28:58.056Z,20.00
2018-10-03T05:31:39.480Z,20.00
2018-10-03T05:34:20.836Z,19.90
2018-10-03T05:37:01.404Z,19.90
2018-10-03T05:39:42.750Z,19.90
2018-10-03T05:42:23.236Z,19.90
2018-10-03T05:45:03.747Z,19.90
2018-10-03T05:47:44.279Z,20.00
2018-10-03T05:50:25.746Z,20.00
2018-10-03T05:53:06.256Z,19.90
2018-10-03T05:55:47.953Z,20.00
2018-10-03T05:58:29.239Z,20.00
2018-10-03T06:01:10.684Z,20.00
2018-10-03T06:03:52.020Z,20.00
2018-10-03T06:06:32.602Z,20.00
2018-10-03T06:09:13.656Z,20.10
2018-10-03T06:11:54.537Z,20.20
2018-10-03T06:14:35.072Z,20.20
2018-10-03T06:17:16.391Z,20.30
2018-10-03T06:19:56.855Z,20.40
2018-10-03T06:22:38.020Z,20.60
2018-10-03T06:25:19.142Z,21.00
2018-10-03T06:28:00.559Z,21.30
2018-10-03T06:30:41.016Z,21.70
2018-10-03T06:33:22.378Z,22.00
2018-10-03T06:36:02.920Z,22.30
2018-10-03T06:38:43.405Z,22.30
2018-10-03T06:41:23.905Z,22.40
2018-10-03T06:44:04.420Z,22.50
2018-10-03T06:46:45.859Z,22.60
2018-10-03T06:49:26.448Z,22.70
2018-10-03T06:52:06.968Z,22.80
2018-10-03T06:54:47.468Z,22.90
2018-10-03T06:57:27.905Z,23.00
2018-10-03T07:00:08.501Z,23.00
2018-10-03T07:02:49.867Z,23.10
2018-10-03T07:05:31.300Z,23.10
2018-10-03T07:08:12.727Z,23.10
2018-10-03T07:10:54.087Z,23.20
2018-10-03T07:13:34.612Z,23.30
2018-10-03T07:16:16.055Z,23.40
2018-10-03T07:18:56.532Z,23.40
2018-10-03T07:21:36.983Z,23.40
2018-10-03T07:24:17.568Z,23.40
2018-10-03T07:26:59.012Z,23.30
2018-10-03T07:29:39.552Z,23.50
2018-10-03T07:32:20.967Z,23.60
2018-10-03T07:35:02.540Z,23.70
2018-10-03T07:37:43.832Z,23.90
2018-10-03T07:40:24.395Z,24.20
2018-10-03T07:43:05.773Z,24.40
2018-10-03T07:45:47.172Z,24.50
2018-10-03T07:48:27.782Z,24.70
2018-10-03T07:51:08.259Z,24.90
2018-10-03T07:53:48.714Z,25.20
2018-10-03T07:56:29.216Z,25.30
2018-10-03T07:59:09.837Z,25.60
2018-10-03T08:01:51.243Z,25.80
2018-10-03T08:04:31.752Z,26.00
2018-10-03T08:07:12.934Z,26.20
2018-10-03T08:09:53.822Z,26.30
2018-10-03T08:12:34.307Z,26.40
2018-10-03T08:15:14.864Z,26.50
2018-10-03T08:17:55.319Z,26.70
2018-10-03T08:20:36.763Z,26.80
2018-10-03T08:23:18.155Z,27.00
2018-10-03T08:25:58.643Z,27.30
2018-10-03T08:28:39.377Z,27.50
2018-10-03T08:31:20.777Z,27.70
2018-10-03T08:34:01.943Z,27.90
2018-10-03T08:36:43.032Z,28.20
2018-10-03T08:39:24.507Z,28.40
2018-10-03T08:42:05.820Z,28.70
2018-10-03T08:44:46.440Z,29.10
2018-10-03T08:47:27.840Z,29.40
2018-10-03T08:50:08.308Z,29.70
2018-10-03T08:52:48.779Z,30.10
2018-10-03T08:55:29.393Z,30.50
2018-10-03T08:58:09.924Z,30.90
2018-10-03T09:00:51.691Z,31.40
2018-10-03T09:03:32.984Z,31.70
2018-10-03T09:06:14.427Z,32.10
2018-10-03T09:08:56.069Z,32.40
2018-10-03T09:11:37.406Z,32.50
2018-10-03T09:14:17.968Z,32.50
2018-10-03T09:16:59.424Z,32.20
2018-10-03T09:19:39.957Z,31.90
2018-10-03T09:22:20.491Z,31.50
2018-10-03T09:25:01.056Z,31.10
2018-10-03T09:27:41.598Z,30.70
2018-10-03T09:30:22.109Z,30.40
2018-10-03T09:33:02.600Z,30.10
2018-10-03T09:35:43.072Z,29.90
2018-10-03T09:38:23.602Z,29.70
2018-10-03T09:41:04.056Z,29.60
2018-10-03T09:43:45.528Z,29.40
2018-10-03T09:46:27.511Z,29.30
2018-10-03T09:49:08.353Z,29.30
2018-10-03T09:51:49.628Z,29.30
2018-10-03T09:54:30.208Z,29.20
2018-10-03T09:57:11.605Z,29.10
2018-10-03T09:59:52.952Z,29.00
2018-10-03T10:02:34.295Z,29.00
2018-10-03T10:05:14.779Z,28.90
2018-10-03T10:07:55.235Z,28.90
2018-10-03T10:10:35.708Z,28.90
2018-10-03T10:13:17.135Z,28.80
2018-10-03T10:15:58.509Z,28.80
2018-10-03T10:18:40.492Z,28.70
2018-10-03T10:21:21.261Z,28.70
2018-10-03T10:24:01.915Z,28.50
2018-10-03T10:26:43.975Z,28.40
2018-10-03T10:29:24.748Z,28.40
2018-10-03T10:32:05.275Z,28.30
2018-10-03T10:34:45.991Z,28.20
2018-10-03T10:37:26.517Z,28.20
2018-10-03T10:40:07.044Z,28.10
2018-10-03T10:42:47.817Z,28.20
2018-10-03T10:45:28.987Z,28.20
2018-10-03T10:48:09.451Z,28.10
2018-10-03T10:50:50.059Z,28.00
2018-10-03T10:53:30.593Z,27.90
2018-10-03T10:56:11.103Z,27.80
2018-10-03T10:58:52.620Z,27.70
2018-10-03T11:01:34.487Z,27.60
2018-10-03T11:04:15.571Z,27.50
2018-10-03T11:06:56.024Z,27.40
2018-10-03T11:09:36.858Z,27.50
2018-10-03T11:12:18.057Z,27.40
2018-10-03T11:14:58.622Z,27.40
2018-10-03T11:17:40.108Z,27.30
2018-10-03T11:20:21.556Z,27.20
2018-10-03T11:23:02.955Z,27.20
2018-10-03T11:25:43.626Z,27.30
2018-10-03T11:28:24.079Z,27.30
2018-10-03T11:31:04.656Z,27.40
2018-10-03T11:33:46.048Z,27.40
2018-10-03T11:36:26.639Z,27.50
2018-10-03T11:39:07.166Z,27.50
2018-10-03T11:41:48.528Z,27.60
2018-10-03T11:44:29.947Z,27.70
2018-10-03T11:47:11.262Z,27.90
2018-10-03T11:49:51.779Z,28.00
2018-10-03T11:52:33.147Z,28.00
2018-10-03T11:55:14.547Z,28.10
2018-10-03T11:57:55.039Z,28.30
2018-10-03T12:00:36.548Z,28.40
2018-10-03T12:03:17.927Z,28.50
2018-10-03T12:05:59.258Z,28.60
2018-10-03T12:08:39.777Z,28.70
2018-10-03T12:11:21.355Z,28.70
2018-10-03T12:14:03.269Z,28.70
2018-10-03T12:16:44.298Z,28.70
2018-10-03T12:19:24.788Z,28.60
2018-10-03T12:22:06.811Z,28.50
2018-10-03T12:24:47.721Z,28.40
2018-10-03T12:27:28.323Z,28.40
2018-10-03T12:30:09.607Z,28.40
2018-10-03T12:32:51.515Z,28.40
2018-10-03T12:35:33.320Z,28.40
2018-10-03T12:38:13.923Z,28.50
2018-10-03T12:40:54.395Z,28.60
2018-10-03T12:43:35.999Z,28.60
2018-10-03T12:46:17.272Z,28.60
2018-10-03T12:48:57.758Z,28.70
2018-10-03T12:51:38.252Z,28.60
2018-10-03T12:54:18.804Z,28.60
2018-10-03T12:57:00.143Z,28.60
2018-10-03T12:59:40.663Z,28.60
2018-10-03T13:02:22.212Z,28.60
2018-10-03T13:05:04.387Z,28.60
2018-10-03T13:07:44.987Z,28.70
2018-10-03T13:10:25.579Z,28.70
2018-10-03T13:13:06.044Z,28.60
2018-10-03T13:15:47.628Z,28.60
2018-10-03T13:18:29.173Z,28.70
2018-10-03T13:21:10.604Z,28.70
2018-10-03T13:23:52.003Z,28.70
2018-10-03T13:26:33.780Z,28.70
2018-10-03T13:29:14.851Z,28.70
2018-10-03T13:31:55.820Z,28.70
2018-10-03T13:34:36.935Z,28.70
2018-10-03T13:37:17.391Z,28.70
2018-10-03T13:39:58.785Z,28.70
2018-10-03T13:42:39.268Z,28.70
2018-10-03T13:45:19.799Z,28.60
2018-10-03T13:48:01.132Z,28.60
2018-10-03T13:50:42.372Z,28.70
2018-10-03T13:53:23.219Z,28.70
2018-10-03T13:56:04.631Z,28.70
2018-10-03T13:58:45.107Z,28.60
2018-10-03T14:01:25.584Z,28.60
2018-10-03T14:04:06.065Z,28.50
2018-10-03T14:06:46.512Z,28.50
2018-10-03T14:09:26.969Z,28.40
2018-10-03T14:12:07.459Z,28.30
2018-10-03T14:14:48.017Z,28.20
2018-10-03T14:17:29.389Z,28.20
2018-10-03T14:20:10.227Z,28.00
2018-10-03T14:22:51.650Z,27.90
2018-10-03T14:25:33.023Z,27.90
2018-10-03T14:28:13.523Z,27.80
2018-10-03T14:30:54.908Z,27.70
2018-10-03T14:33:35.400Z,27.60
2018-10-03T14:36:16.050Z,27.50
2018-10-03T14:38:56.539Z,27.30
2018-10-03T14:41:37.055Z,27.30
2018-10-03T14:44:17.516Z,27.20
2018-10-03T14:46:58.059Z,27.10
2018-10-03T14:49:39.617Z,27.00
2018-10-03T14:52:20.991Z,26.90
2018-10-03T14:55:02.212Z,26.80
2018-10-03T14:57:42.747Z,26.70
2018-10-03T15:00:24.111Z,26.60
2018-10-03T15:03:05.500Z,26.50
2018-10-03T15:05:45.963Z,26.40
2018-10-03T15:08:26.440Z,26.30
2018-10-03T15:11:07.823Z,26.30
2018-10-03T15:13:48.287Z,26.20
2018-10-03T15:16:28.788Z,26.20
2018-10-03T15:19:09.775Z,26.10
2018-10-03T15:21:50.771Z,26.10
2018-10-03T15:24:31.335Z,26.00
2018-10-03T15:27:12.797Z,25.90
2018-10-03T15:29:53.434Z,25.80
2018-10-03T15:32:34.811Z,25.80
2018-10-03T15:35:16.266Z,25.70
2018-10-03T15:37:56.749Z,25.60
2018-10-03T15:40:38.384Z,25.60
2018-10-03T15:43:19.577Z,25.40
2018-10-03T15:46:00.187Z,25.30
2018-10-03T15:48:41.120Z,25.10
2018-10-03T15:51:22.208Z,25.00
2018-10-03T15:54:02.683Z,24.90
2018-10-03T15:56:44.142Z,24.90
2018-10-03T15:59:25.481Z,24.80
2018-10-03T16:02:07.088Z,24.70
2018-10-03T16:04:48.501Z,24.60
2018-10-03T16:07:29.051Z,24.60
2018-10-03T16:10:09.512Z,24.60
2018-10-03T16:12:50.019Z,24.50
2018-10-03T16:15:31.024Z,24.50
2018-10-03T16:18:11.816Z,24.40
2018-10-03T16:20:52.335Z,24.40
2018-10-03T16:23:33.700Z,24.30
2018-10-03T16:26:14.351Z,24.30
2018-10-03T16:28:54.871Z,24.20
2018-10-03T16:31:36.307Z,24.20
2018-10-03T16:34:16.884Z,24.10
2018-10-03T16:36:57.441Z,24.10
2018-10-03T16:39:38.036Z,24.00
2018-10-03T16:42:19.412Z,23.90
2018-10-03T16:45:00.784Z,23.90
2018-10-03T16:47:42.219Z,23.80
2018-10-03T16:50:23.644Z,23.80
2018-10-03T16:53:05.064Z,23.70
2018-10-03T16:55:46.423Z,23.70
2018-10-03T16:58:26.967Z,23.60
2018-10-03T17:01:07.462Z,23.60
2018-10-03T17:03:48.060Z,23.70
2018-10-03T17:06:28.587Z,23.60
2018-10-03T17:09:09.175Z,23.70
2018-10-03T17:11:51.177Z,23.60
2018-10-03T17:14:38.865Z,23.50
2018-10-03T17:17:20.247Z,23.50
2018-10-03T17:20:01.187Z,23.50
2018-10-03T17:22:42.371Z,23.50
2018-10-03T17:25:23.740Z,23.50
2018-10-03T17:28:05.144Z,23.40
2018-10-03T17:30:46.576Z,23.50
2018-10-03T17:33:28.088Z,23.40
2018-10-03T17:36:09.503Z,23.30
2018-10-03T17:38:50.998Z,23.30
2018-10-03T17:41:32.518Z,23.30
2018-10-03T17:44:14.918Z,23.20
2018-10-03T17:46:56.666Z,23.20
2018-10-03T17:49:37.776Z,23.10
2018-10-03T17:52:18.288Z,23.00
2018-10-03T17:54:58.755Z,22.90
2018-10-03T17:57:39.292Z,22.90
2018-10-03T18:00:20.711Z,22.90
2018-10-03T18:03:02.155Z,22.80
2018-10-03T18:05:42.623Z,22.80
2018-10-03T18:08:24.041Z,22.70
2018-10-03T18:11:04.488Z,22.70
2018-10-03T18:13:45.201Z,22.60
2018-10-03T18:16:26.320Z,22.50
2018-10-03T18:19:06.896Z,22.50
2018-10-03T18:21:48.270Z,22.40
2018-10-03T18:24:28.755Z,22.40
2018-10-03T18:27:09.257Z,22.30
2018-10-03T18:29:49.753Z,22.30
2018-10-03T18:32:30.735Z,22.20
2018-10-03T18:35:11.599Z,22.20
2018-10-03T18:37:52.392Z,22.10
2018-10-03T18:40:33.640Z,22.00
2018-10-03T18:43:15.087Z,22.00
2018-10-03T18:45:55.616Z,21.90
2018-10-03T18:48:36.988Z,21.90
2018-10-03T18:51:18.896Z,21.80
2018-10-03T18:53:59.884Z,21.70
2018-10-03T18:56:40.477Z,21.70
2018-10-03T18:59:21.887Z,21.60
2018-10-03T19:02:03.300Z,21.50
2018-10-03T19:04:43.813Z,21.50
2018-10-03T19:07:25.197Z,21.40
2018-10-03T19:10:05.792Z,21.40
2018-10-03T19:12:47.064Z,21.40
2018-10-03T19:15:28.479Z,21.40
2018-10-03T19:18:09.312Z,21.50
2018-10-03T19:20:50.443Z,21.50
2018-10-03T19:23:31.879Z,21.50
2018-10-03T19:26:13.391Z,21.40
2018-10-03T19:28:54.808Z,21.40
2018-10-03T19:31:35.264Z,21.40
2018-10-03T19:34:16.661Z,21.40
2018-10-03T19:36:57.131Z,21.40
2018-10-03T19:39:37.610Z,21.30
2018-10-03T19:42:18.989Z,21.30
2018-10-03T19:45:00.428Z,21.30
2018-10-03T19:47:40.923Z,21.20
2018-10-03T19:50:21.444Z,21.20
2018-10-03T19:53:02.055Z,21.20
2018-10-03T19:55:43.435Z,21.20
2018-10-03T19:58:25.143Z,21.20
2018-10-03T20:01:06.283Z,21.10
2018-10-03T20:03:46.813Z,21.10
2018-10-03T20:06:27.368Z,21.00
2018-10-03T20:09:08.468Z,21.00
2018-10-03T20:11:49.483Z,21.00
2018-10-03T20:14:29.931Z,21.00
2018-10-03T20:17:11.359Z,20.90
2018-10-03T20:19:51.803Z,20.90
2018-10-03T20:22:32.276Z,20.90
2018-10-03T20:25:12.771Z,20.90
2018-10-03T20:27:53.262Z,20.80
2018-10-03T20:30:34.618Z,20.80
2018-10-03T20:33:15.100Z,20.80
2018-10-03T20:35:55.707Z,20.80
2018-10-03T20:38:37.199Z,20.90
2018-10-03T20:41:18.123Z,20.90
2018-10-03T20:43:59.180Z,20.90
2018-10-03T20:46:40.671Z,21.00
2018-10-03T20:49:21.987Z,21.00
2018-10-03T20:52:02.572Z,21.00
2018-10-03T20:54:43.040Z,21.10
2018-10-03T20:57:23.683Z,21.10
2018-10-03T21:00:04.304Z,21.10
2018-10-03T21:02:46.127Z,21.10
2018-10-03T21:05:27.080Z,21.10
2018-10-03T21:08:08.426Z,21.10
2018-10-03T21:10:48.860Z,21.00
2018-10-03T21:13:30.439Z,21.00
2018-10-03T21:16:10.923Z,21.00
2018-10-03T21:18:52.292Z,21.00
2018-10-03T21:21:32.763Z,21.00
2018-10-03T21:24:14.176Z,21.00
2018-10-03T21:26:55.630Z,21.00
2018-10-03T21:29:36.252Z,20.90
2018-10-03T21:32:17.636Z,20.90
2018-10-03T21:34:59.087Z,20.90
2018-10-03T21:37:40.508Z,20.90
2018-10-03T21:40:21.983Z,20.80
2018-10-03T21:43:02.519Z,20.80
2018-10-03T21:45:43.785Z,20.80
2018-10-03T21:48:24.297Z,20.80
2018-10-03T21:51:05.662Z,20.80
2018-10-03T21:53:46.258Z,20.80
2018-10-03T21:56:26.819Z,20.80
2018-10-03T21:59:07.359Z,20.80
2018-10-03T22:01:48.686Z,20.80
2018-10-03T22:04:30.201Z,20.70
2018-10-03T22:07:11.463Z,20.70
2018-10-03T22:09:51.927Z,20.70
2018-10-03T22:12:32.540Z,20.70
2018-10-03T22:15:13.987Z,20.70
2018-10-03T22:17:54.463Z,20.70
2018-10-03T22:20:35.091Z,20.70
2018-10-03T22:23:15.639Z,20.60
2018-10-03T22:25:57.039Z,20.60
2018-10-03T22:28:38.527Z,20.60
2018-10-03T22:31:19.939Z,20.60
2018-10-03T22:34:00.492Z,20.60
2018-10-03T22:36:41.952Z,20.60
2018-10-03T22:39:23.327Z,20.70
2018-10-03T22:42:04.723Z,20.70
2018-10-03T22:44:45.311Z,20.60
2018-10-03T22:47:26.057Z,20.60
2018-10-03T22:50:07.456Z,20.60
2018-10-03T22:52:47.944Z,20.60
2018-10-03T22:55:28.559Z,20.50
2018-10-03T22:58:09.919Z,20.50
2018-10-03T23:00:50.472Z,20.50
2018-10-03T23:03:30.979Z,20.50
2018-10-03T23:06:12.572Z,20.50
2018-10-03T23:08:53.971Z,20.50
2018-10-03T23:11:35.620Z,20.50
2018-10-03T23:14:16.704Z,20.50
2018-10-03T23:16:57.280Z,20.50
2018-10-03T23:19:38.668Z,20.50
2018-10-03T23:22:19.143Z,20.50
2018-10-03T23:25:00.590Z,20.50
2018-10-03T23:27:41.267Z,20.50
2018-10-03T23:30:21.852Z,20.50
2018-10-03T23:33:03.347Z,20.40
2018-10-03T23:35:44.760Z,20.40
2018-10-03T23:38:25.319Z,20.50
2018-10-03T23:41:05.844Z,20.50
2018-10-03T23:43:47.275Z,20.50
2018-10-03T23:46:27.794Z,20.50
2018-10-03T23:49:09.138Z,20.50
2018-10-03T23:51:49.624Z,20.50
2018-10-03T23:54:30.256Z,20.50
2018-10-03T23:57:10.732Z,20.50
2018-10-03T23:59:51.339Z,20.50
